Time;durP1;ratioP1;P1;durP2;ratioP2;P2;SDS_P1;SDS_P2;PMS_P1;PMS_P2;Temp;Humidity;BMP_temperature;BMP_pressure;BME280_temperature;BME280_humidity;BME280_pressure;Samples;Min_cycle;Max_cycle;Signal;HPM_P1;HPM_P2
2021/11/27 00:00:47;;;;;;;18.02;14.20;;;;;;;3.03;100.00;97865.81;5052880;28;20040;-86
2021/11/27 00:03:13;;;;;;;18.63;14.27;;;;;;;3.02;100.00;97865.00;5071223;28;20040;-86
2021/11/27 00:05:40;;;;;;;18.35;14.18;;;;;;;3.04;100.00;97867.44;5053695;28;20124;-85
2021/11/27 00:08:08;;;;;;;17.33;14.20;;;;;;;3.07;100.00;97864.41;5072861;28;20055;-86
2021/11/27 00:10:34;;;;;;;18.40;13.25;;;;;;;3.04;100.00;97867.44;5070047;28;20472;-85
2021/11/27 00:13:01;;;;;;;16.33;12.75;;;;;;;3.02;100.00;97858.84;5071911;28;20496;-84
2021/11/27 00:15:28;;;;;;;16.23;12.95;;;;;;;3.02;100.00;97858.84;5054483;28;20115;-85
2021/11/27 00:17:56;;;;;;;18.40;14.68;;;;;;;3.07;100.00;97856.47;5071885;28;20048;-85
2021/11/27 00:20:24;;;;;;;20.75;14.18;;;;;;;3.05;100.00;97859.31;5054842;28;20041;-84
2021/11/27 00:22:50;;;;;;;20.00;15.57;;;;;;;3.08;100.00;97847.50;5053375;28;20047;-84
2021/11/27 00:25:16;;;;;;;17.75;14.05;;;;;;;3.07;100.00;97857.28;5067755;28;20127;-85
2021/11/27 00:27:41;;;;;;;19.05;14.32;;;;;;;3.09;100.00;97854.47;5037134;28;20135;-84
2021/11/27 00:30:10;;;;;;;19.55;13.98;;;;;;;3.05;100.00;97854.03;5072021;28;20085;-84
2021/11/27 00:32:36;;;;;;;21.30;16.90;;;;;;;3.09;100.00;97843.84;5071762;28;20037;-84
2021/11/27 00:35:04;;;;;;;20.42;17.10;;;;;;;3.10;100.00;97850.78;5072140;28;20044;-84
2021/11/27 00:37:29;;;;;;;23.48;18.88;;;;;;;3.11;100.00;97849.81;5051110;28;20486;-85
2021/11/27 00:39:54;;;;;;;22.25;19.25;;;;;;;3.12;100.00;97848.78;5017264;28;20048;-85
2021/11/27 00:42:20;;;;;;;24.85;18.52;;;;;;;3.09;100.00;97849.16;5030120;28;20049;-85
2021/11/27 00:44:45;;;;;;;26.88;20.15;;;;;;;3.10;100.00;97848.13;5038898;28;20053;-85
2021/11/27 00:47:11;;;;;;;30.95;22.23;;;;;;;3.10;100.00;97841.00;5052241;28;20083;-85
2021/11/27 00:49:36;;;;;;;26.50;20.98;;;;;;;3.13;100.00;97845.94;5059087;28;20052;-84
2021/11/27 00:52:02;;;;;;;31.70;22.67;;;;;;;3.16;100.00;97850.03;5071718;28;20444;-84
2021/11/27 00:54:28;;;;;;;32.17;22.80;;;;;;;3.13;100.00;97843.28;5054027;28;20409;-85
2021/11/27 00:56:53;;;;;;;32.35;25.52;;;;;;;3.15;100.00;97843.09;5070522;28;20059;-85
2021/11/27 00:59:19;;;;;;;34.47;24.60;;;;;;;3.16;100.00;97836.78;5053545;28;20514;-85
2021/11/27 01:01:45;;;;;;;35.35;24.58;;;;;;;3.20;100.00;97840.72;5053377;28;20087;-84
2021/11/27 01:04:11;;;;;;;36.05;24.02;;;;;;;3.20;100.00;97838.06;5070956;28;20811;-85
2021/11/27 01:06:38;;;;;;;35.05;23.90;;;;;;;3.19;100.00;97836.41;5053332;28;20683;-84
2021/11/27 01:09:11;;;;;;;35.83;25.40;;;;;;;3.20;100.00;97837.25;5071859;28;20476;-84
2021/11/27 01:11:46;;;;;;;38.90;24.70;;;;;;;3.19;100.00;97835.59;5050755;28;20064;-85
2021/11/27 01:14:19;;;;;;;42.40;30.70;;;;;;;3.19;100.00;97831.09;5068098;28;20051;-84
2021/11/27 01:16:49;;;;;;;41.75;28.13;;;;;;;3.25;100.00;97827.72;5052989;28;20044;-84
2021/11/27 01:19:15;;;;;;;51.10;33.28;;;;;;;3.27;100.00;97824.88;5053385;28;20037;-85
2021/11/27 01:21:45;;;;;;;46.08;31.92;;;;;;;3.30;100.00;97830.59;5065433;28;20045;-85
2021/11/27 01:24:13;;;;;;;45.25;29.35;;;;;;;3.28;100.00;97826.50;5053410;28;20040;-84
2021/11/27 01:26:39;;;;;;;44.28;27.67;;;;;;;3.30;100.00;97827.94;5061374;28;20037;-84
2021/11/27 01:29:05;;;;;;;44.25;29.58;;;;;;;3.31;100.00;97832.25;5061935;28;20393;-84
2021/11/27 01:31:31;;;;;;;47.10;31.55;;;;;;;3.33;100.00;97840.81;5036053;28;20044;-84
2021/11/27 01:33:57;;;;;;;47.55;32.03;;;;;;;3.37;100.00;97839.44;5052885;28;20047;-84
2021/11/27 01:36:22;;;;;;;45.88;29.40;;;;;;;3.39;100.00;97847.19;5053190;28;20119;-84
2021/11/27 01:38:48;;;;;;;49.92;33.15;;;;;;;3.41;100.00;97844.38;5052547;28;20392;-85
2021/11/27 01:41:15;;;;;;;46.17;29.05;;;;;;;3.37;100.00;97850.03;5052060;28;20040;-84
2021/11/27 01:43:41;;;;;;;48.53;30.92;;;;;;;3.41;100.00;97854.97;5068064;28;20040;-85
2021/11/27 01:46:07;;;;;;;46.05;28.70;;;;;;;3.40;100.00;97846.19;5034517;28;20051;-84
2021/11/27 01:48:33;;;;;;;45.08;28.15;;;;;;;3.42;100.00;97849.47;5068746;28;20131;-85
2021/11/27 01:51:02;;;;;;;51.15;34.63;;;;;;;3.43;100.00;97845.81;5033158;28;20049;-84
2021/11/27 01:53:29;;;;;;;;;;;;;;;3.45;100.00;97842.97;5060663;28;20469;-85
2021/11/27 01:55:59;;;;;;;47.95;32.60;;;;;;;3.38;100.00;97856.97;5085599;28;20372;-84
2021/11/27 01:58:25;;;;;;;44.35;29.10;;;;;;;3.41;100.00;97842.53;5053123;28;20135;-84
2021/11/27 02:00:54;;;;;;;48.65;29.48;;;;;;;3.44;100.00;97847.44;5052089;28;20446;-86
2021/11/27 02:03:20;;;;;;;;;;;;;;;3.47;100.00;97851.56;5052092;28;20052;-84
2021/11/27 02:05:52;;;;;;;48.50;32.80;;;;;;;3.42;100.00;97848.66;5050301;28;19931;-85
2021/11/27 02:08:23;;;;;;;48.88;31.65;;;;;;;3.42;100.00;97852.09;5058556;28;20041;-85
2021/11/27 02:10:51;;;;;;;43.85;27.40;;;;;;;3.46;100.00;97844.63;5044841;28;20039;-85
2021/11/27 02:13:19;;;;;;;46.03;31.77;;;;;;;3.48;100.00;97855.84;5056609;28;20837;-85
2021/11/27 02:15:45;;;;;;;44.92;30.70;;;;;;;3.52;100.00;97862.41;5046573;28;20044;-84
2021/11/27 02:18:19;;;;;;;46.25;28.95;;;;;;;3.52;100.00;97859.75;5045922;28;20060;-85
2021/11/27 02:21:16;;;;;;;39.97;28.05;;;;;;;3.55;100.00;97862.03;5031459;28;20127;-84
2021/11/27 02:23:45;;;;;;;41.58;23.77;;;;;;;3.52;100.00;97857.94;5051150;28;20044;-85
2021/11/27 02:26:17;;;;;;;42.85;28.02;;;;;;;3.54;100.00;97855.91;5029526;28;20048;-85
2021/11/27 02:28:50;;;;;;;42.53;26.83;;;;;;;3.56;100.00;97856.53;5044056;28;20055;-85
2021/11/27 02:31:19;;;;;;;40.03;24.33;;;;;;;3.53;100.00;97861.38;5026482;28;20170;-84
2021/11/27 02:33:46;;;;;;;;;;;;;;;3.54;100.00;97857.72;5061985;28;20111;-84
2021/11/27 02:36:20;;;;;;;43.92;29.90;;;;;;;3.49;100.00;97860.16;5061416;28;19919;-84
2021/11/27 02:39:03;;;;;;;40.25;25.65;;;;;;;3.47;100.00;97860.31;5043231;28;20051;-84
2021/11/27 02:41:29;;;;;;;42.25;29.25;;;;;;;3.53;100.00;97859.56;5064812;28;20052;-84
2021/11/27 02:43:56;;;;;;;41.67;26.70;;;;;;;3.53;100.00;97850.78;5062628;28;20044;-84
2021/11/27 02:46:22;;;;;;;42.63;24.20;;;;;;;3.54;100.00;97858.56;5061943;28;20041;-84
2021/11/27 02:48:50;;;;;;;42.08;23.92;;;;;;;3.55;100.00;97859.38;5034263;28;20051;-84
2021/11/27 02:51:16;;;;;;;39.97;25.60;;;;;;;3.58;100.00;97854.50;5015663;28;20040;-84
2021/11/27 02:53:44;;;;;;;41.80;26.73;;;;;;;3.60;100.00;97856.97;5029575;28;20044;-85
2021/11/27 02:56:17;;;;;;;41.45;28.52;;;;;;;3.62;100.00;97862.88;5049572;28;20040;-85
2021/11/27 02:58:45;;;;;;;42.85;26.48;;;;;;;3.58;100.00;97865.13;5062863;28;20045;-84
2021/11/27 03:01:11;;;;;;;39.90;26.40;;;;;;;3.59;100.00;97866.75;5065540;28;20045;-84
2021/11/27 03:03:45;;;;;;;39.03;24.60;;;;;;;3.60;100.00;97867.59;5065035;28;20059;-84
2021/11/27 03:06:17;;;;;;;41.03;27.20;;;;;;;3.59;100.00;97874.69;5034756;28;20041;-84
2021/11/27 03:08:42;;;;;;;38.42;24.40;;;;;;;3.58;100.00;97873.06;5050466;28;20422;-85
2021/11/27 03:11:09;;;;;;;41.15;25.00;;;;;;;3.61;100.00;97866.56;5048677;28;20051;-84
2021/11/27 03:13:37;;;;;;;39.80;25.70;;;;;;;3.61;100.00;97869.22;5063735;28;20125;-85
2021/11/27 03:16:06;;;;;;;44.57;27.43;;;;;;;3.61;100.00;97863.91;5063154;28;20365;-85
2021/11/27 03:18:36;;;;;;;42.20;25.73;;;;;;;3.62;100.00;97870.84;5067662;28;20052;-85
2021/11/27 03:21:02;;;;;;;41.00;27.98;;;;;;;3.62;100.00;97870.84;5046509;28;20093;-84
2021/11/27 03:23:30;;;;;;;41.42;25.88;;;;;;;3.64;100.00;97868.84;5047550;28;20041;-84
2021/11/27 03:25:57;;;;;;;41.17;23.75;;;;;;;3.63;100.00;97874.34;5061238;28;20037;-85
2021/11/27 03:28:26;;;;;;;43.50;26.85;;;;;;;3.65;100.00;97864.34;5066623;28;20056;-85
2021/11/27 03:30:52;;;;;;;41.13;25.52;;;;;;;3.66;100.00;97874.78;5051650;28;20033;-85
2021/11/27 03:33:18;;;;;;;39.22;24.90;;;;;;;3.64;100.00;97868.03;5050106;28;20041;-84
2021/11/27 03:35:43;;;;;;;45.83;27.60;;;;;;;3.66;100.00;97876.63;5049989;28;20246;-85
2021/11/27 03:38:10;;;;;;;41.85;25.50;;;;;;;3.66;100.00;97876.63;5033958;28;20040;-84
2021/11/27 03:40:38;;;;;;;40.20;21.05;;;;;;;3.61;100.00;97877.19;5050797;28;20049;-83
2021/11/27 03:43:09;;;;;;;38.47;23.67;;;;;;;3.64;100.00;97870.66;5062311;28;20079;-84
2021/11/27 03:45:37;;;;;;;43.00;25.95;;;;;;;3.66;100.00;97884.56;5050933;28;20084;-84
2021/11/27 03:48:06;;;;;;;43.05;23.98;;;;;;;3.64;100.00;97881.28;5062282;28;20501;-84
2021/11/27 03:50:39;;;;;;;45.65;25.67;;;;;;;3.65;100.00;97885.56;5050486;28;20064;-84
2021/11/27 03:53:12;;;;;;;42.45;26.83;;;;;;;3.65;100.00;97883.72;5017189;28;20094;-84
2021/11/27 03:55:38;;;;;;;42.60;25.98;;;;;;;3.67;100.00;97887.00;5066169;28;20501;-84
2021/11/27 03:58:03;;;;;;;48.17;28.58;;;;;;;3.66;100.00;97890.69;5069142;28;20048;-84
2021/11/27 04:00:33;;;;;;;43.42;26.48;;;;;;;3.64;100.00;97889.22;5047717;28;20484;-84
2021/11/27 04:03:07;;;;;;;51.53;30.55;;;;;;;3.67;100.00;97892.31;5049685;28;20112;-84
2021/11/27 04:05:44;;;;;;;53.40;32.10;;;;;;;3.67;100.00;97897.63;5065584;28;20047;-84
2021/11/27 04:08:11;;;;;;;52.33;31.55;;;;;;;3.70;100.00;97901.72;5041933;28;20763;-84
2021/11/27 04:10:46;;;;;;;52.78;31.80;;;;;;;3.67;100.00;97894.97;5065488;28;20050;-84
2021/11/27 04:13:12;;;;;;;51.17;28.23;;;;;;;3.66;100.00;97901.28;5050320;28;20040;-84
2021/11/27 04:15:51;;;;;;;55.58;31.02;;;;;;;3.68;100.00;97901.91;5059330;28;20124;-84
2021/11/27 04:18:18;;;;;;;52.20;28.48;;;;;;;3.66;100.00;97903.13;5056380;28;20085;-85
2021/11/27 04:20:45;;;;;;;47.95;27.60;;;;;;;3.64;100.00;97911.25;5037179;28;20048;-85
2021/11/27 04:23:15;;;;;;;53.28;30.83;;;;;;;3.64;100.00;97911.25;5062758;28;20044;-85
2021/11/27 04:25:43;;;;;;;48.35;28.15;;;;;;;3.61;100.00;97912.47;5044601;28;20040;-86
2021/11/27 04:28:11;;;;;;;54.78;31.20;;;;;;;3.59;100.00;97919.78;5067520;28;20119;-85
2021/11/27 04:30:39;;;;;;;49.87;28.63;;;;;;;3.59;100.00;97922.44;5015769;28;20818;-85
2021/11/27 04:33:09;;;;;;;44.22;23.85;;;;;;;3.57;100.00;97928.97;5042267;28;20119;-84
2021/11/27 04:35:35;;;;;;;37.47;20.60;;;;;;;3.48;100.00;97927.41;5050007;28;20400;-86
2021/11/27 04:38:03;;;;;;;28.98;16.73;;;;;;;3.38;100.00;97930.38;5062370;28;20552;-85
2021/11/27 04:40:34;;;;;;;28.23;14.48;;;;;;;3.29;100.00;97929.69;5043556;28;20041;-85
2021/11/27 04:43:01;;;;;;;33.13;18.48;;;;;;;3.32;100.00;97933.78;5066035;28;20036;-85
2021/11/27 04:45:28;;;;;;;31.75;16.23;;;;;;;3.24;100.00;97945.31;5038040;28;20048;-84
2021/11/27 04:47:53;;;;;;;33.50;16.10;;;;;;;3.18;100.00;97954.03;5053566;28;20044;-85
2021/11/27 04:50:19;;;;;;;35.47;18.38;;;;;;;3.19;100.00;97945.06;5059469;28;20044;-84
2021/11/27 04:52:45;;;;;;;33.03;18.52;;;;;;;3.20;100.00;97954.66;5053190;28;20064;-84
2021/11/27 04:55:12;;;;;;;32.80;17.60;;;;;;;3.19;100.00;97957.50;5072880;28;20044;-85
2021/11/27 04:57:38;;;;;;;33.45;17.60;;;;;;;3.15;100.00;97959.69;5053717;28;20039;-84
2021/11/27 05:00:27;;;;;;;37.75;20.77;;;;;;;3.20;100.00;97970.56;5054262;28;20048;-84
2021/11/27 05:02:53;;;;;;;38.35;19.65;;;;;;;3.12;100.00;97968.03;5071528;28;20044;-85
2021/11/27 05:05:19;;;;;;;33.80;18.88;;;;;;;3.13;100.00;97977.59;5054472;28;20484;-85
2021/11/27 05:07:45;;;;;;;38.83;20.80;;;;;;;3.10;100.00;97983.28;5071366;28;20051;-85
2021/11/27 05:10:12;;;;;;;37.40;21.35;;;;;;;3.05;100.00;97985.66;5071024;28;20048;-84
2021/11/27 05:12:38;;;;;;;37.35;19.17;;;;;;;3.08;100.00;97982.63;5050019;28;20037;-84
2021/11/27 05:15:05;;;;;;;30.33;18.60;;;;;;;2.99;100.00;97994.34;5065421;28;20127;-85
2021/11/27 05:17:31;;;;;;;29.55;16.08;;;;;;;2.94;100.00;97995.72;5071693;28;20047;-84
2021/11/27 05:19:56;;;;;;;28.02;17.02;;;;;;;2.93;100.00;97996.75;5036658;28;20127;-84
2021/11/27 05:22:21;;;;;;;32.88;18.60;;;;;;;2.94;100.00;98000.19;5053551;28;20053;-84
2021/11/27 05:24:47;;;;;;;29.95;18.25;;;;;;;2.87;100.00;98005.38;5036659;28;20127;-84
2021/11/27 05:27:19;;;;;;;25.30;12.90;;;;;;;2.76;100.00;98005.03;5037143;28;20581;-85
2021/11/27 05:29:45;;;;;;;27.27;12.85;;;;;;;2.74;100.00;98013.16;5033862;28;20036;-84
2021/11/27 05:32:26;;;;;;;25.17;12.98;;;;;;;2.67;100.00;98009.59;5069719;28;20045;-85
2021/11/27 05:34:54;;;;;;;29.63;16.40;;;;;;;2.63;100.00;98019.72;5067451;28;20052;-84
2021/11/27 05:37:20;;;;;;;28.40;14.82;;;;;;;2.53;100.00;98018.34;5056071;28;20097;-84
2021/11/27 05:39:46;;;;;;;26.27;13.00;;;;;;;2.54;100.00;98020.81;5053040;28;20047;-84
2021/11/27 05:42:14;;;;;;;23.58;12.35;;;;;;;2.47;100.00;98025.16;5053395;28;20048;-84
2021/11/27 05:44:41;;;;;;;23.50;13.70;;;;;;;2.44;100.00;98023.69;5052078;28;20492;-84
2021/11/27 05:47:06;;;;;;;23.63;11.65;;;;;;;2.36;100.00;98031.75;5053264;28;20070;-84
2021/11/27 05:49:31;;;;;;;21.67;11.52;;;;;;;2.32;100.00;98035.72;5071326;28;20564;-85
2021/11/27 05:51:57;;;;;;;20.13;10.68;;;;;;;2.24;100.00;98041.09;5052472;28;20059;-85
2021/11/27 05:54:23;;;;;;;22.38;12.50;;;;;;;2.20;100.00;98042.47;5053076;28;20128;-85
2021/11/27 05:56:48;;;;;;;20.90;9.88;;;;;;;2.09;100.00;98053.47;5070581;28;20071;-84
2021/11/27 05:59:14;;;;;;;21.40;11.48;;;;;;;2.09;100.00;98042.88;5069851;28;20040;-84
2021/11/27 06:01:39;;;;;;;24.50;13.43;;;;;;;2.07;100.00;98052.81;5052470;28;20047;-85
2021/11/27 06:04:05;;;;;;;27.08;12.98;;;;;;;2.08;100.00;98059.75;5053651;28;20060;-85
2021/11/27 06:06:30;;;;;;;30.85;15.80;;;;;;;2.11;100.00;98062.88;5036337;28;20060;-85
2021/11/27 06:08:56;;;;;;;28.63;13.48;;;;;;;2.14;100.00;98064.34;5052682;28;20098;-86
2021/11/27 06:11:22;;;;;;;25.73;13.00;;;;;;;2.10;100.00;98071.81;5053105;28;20401;-85
2021/11/27 06:13:47;;;;;;;24.83;11.90;;;;;;;2.03;100.00;98074.31;5051917;28;20044;-85
2021/11/27 06:16:13;;;;;;;30.45;15.15;;;;;;;2.12;100.00;98068.97;5033444;28;20036;-85
2021/11/27 06:18:38;;;;;;;32.28;14.68;;;;;;;2.07;100.00;98076.63;5065472;28;20631;-84
2021/11/27 06:21:05;;;;;;;30.90;15.15;;;;;;;2.06;100.00;98077.63;5047842;28;20401;-85
2021/11/27 06:23:31;;;;;;;30.02;13.75;;;;;;;2.01;100.00;98078.97;5071878;28;20501;-86
2021/11/27 06:25:57;;;;;;;31.33;12.15;;;;;;;2.02;100.00;98085.09;5032713;28;20045;-85
2021/11/27 06:28:23;;;;;;;30.98;14.95;;;;;;;1.98;100.00;98089.88;5056156;28;20132;-86
2021/11/27 06:30:49;;;;;;;34.78;16.27;;;;;;;2.02;100.00;98090.38;5037644;28;20036;-85
2021/11/27 06:33:14;;;;;;;41.22;19.30;;;;;;;2.07;100.00;98090.66;5052494;28;20051;-85
2021/11/27 06:35:40;;;;;;;35.67;17.17;;;;;;;1.97;100.00;98098.84;5051897;28;20045;-86
2021/11/27 06:38:05;;;;;;;37.00;18.55;;;;;;;2.06;100.00;98096.97;5052889;28;20071;-86
2021/11/27 06:40:31;;;;;;;37.67;18.42;;;;;;;2.05;100.00;98107.72;5052159;28;20045;-85
2021/11/27 06:43:00;;;;;;;33.17;15.05;;;;;;;1.97;100.00;98113.88;5051176;28;20047;-85
2021/11/27 06:45:26;;;;;;;32.65;14.85;;;;;;;1.98;100.00;98108.41;5017933;28;20040;-85
2021/11/27 06:47:51;;;;;;;28.35;13.73;;;;;;;2.02;100.00;98111.53;5050092;28;20067;-85
2021/11/27 06:50:17;;;;;;;23.48;11.48;;;;;;;2.00;100.00;98117.00;5060682;28;20135;-85
2021/11/27 06:52:43;;;;;;;22.92;11.38;;;;;;;2.01;100.00;98123.94;5031625;28;20037;-85
2021/11/27 06:55:09;;;;;;;18.40;9.85;;;;;;;2.00;100.00;98139.97;5061629;28;20400;-86
2021/11/27 06:57:38;;;;;;;16.23;9.13;;;;;;;1.98;100.00;98137.50;5033851;28;20045;-85
2021/11/27 07:00:07;;;;;;;14.02;7.63;;;;;;;1.92;100.00;98134.72;5033261;28;20036;-85
2021/11/27 07:02:37;;;;;;;15.05;7.30;;;;;;;1.93;100.00;98145.16;5048445;28;20048;-85
2021/11/27 07:05:03;;;;;;;13.80;7.40;;;;;;;1.87;100.00;98145.84;5046965;28;20064;-85
2021/11/27 07:07:29;;;;;;;14.82;6.90;;;;;;;1.90;100.00;98157.88;5045473;28;20044;-87
2021/11/27 07:09:55;;;;;;;12.90;6.25;;;;;;;1.85;100.00;98158.41;5036011;28;20104;-86
2021/11/27 07:12:22;;;;;;;11.95;5.30;;;;;;;1.76;100.00;98173.50;5046335;28;20535;-87
2021/11/27 07:14:47;;;;;;;10.15;4.80;;;;;;;1.79;100.00;98169.69;5015102;28;20048;-86
2021/11/27 07:17:13;;;;;;;10.98;4.72;;;;;;;1.70;100.00;98178.66;5048905;28;20408;-86
2021/11/27 07:19:38;;;;;;;10.27;4.15;;;;;;;1.72;100.00;98185.38;5051717;28;20049;-86
2021/11/27 07:22:04;;;;;;;10.90;4.78;;;;;;;1.72;100.00;98184.56;5063142;28;20128;-88
2021/11/27 07:24:30;;;;;;;9.02;4.03;;;;;;;1.62;100.00;98183.97;5048322;28;20592;-86
2021/11/27 07:26:56;;;;;;;11.45;4.57;;;;;;;1.63;100.00;98186.44;5032162;28;20131;-86
2021/11/27 07:29:21;;;;;;;8.98;3.88;;;;;;;1.63;100.00;98180.31;5046210;28;20052;-87
2021/11/27 07:31:51;;;;;;;9.30;4.25;;;;;;;1.64;100.00;98203.09;5042233;28;20084;-87
2021/11/27 07:34:24;;;;;;;9.45;3.78;;;;;;;1.58;100.00;98204.59;5035679;28;20044;-87
2021/11/27 07:36:51;;;;;;;8.15;3.95;;;;;;;1.56;100.00;98210.09;5021934;28;20029;-86
2021/11/27 07:39:18;;;;;;;11.02;4.68;;;;;;;1.60;100.00;98213.19;5043014;28;20040;-87
2021/11/27 07:41:46;;;;;;;13.00;4.53;;;;;;;1.62;100.00;98213.06;5044338;28;20094;-87
2021/11/27 07:44:11;;;;;;;11.50;4.43;;;;;;;1.58;100.00;98218.69;5048650;28;20208;-85
2021/11/27 07:46:37;;;;;;;10.98;5.00;;;;;;;1.63;100.00;98217.34;5045318;28;20037;-86
2021/11/27 07:49:05;;;;;;;13.55;4.97;;;;;;;1.62;100.00;98215.69;5051484;28;20056;-87
2021/11/27 07:51:31;;;;;;;14.35;5.50;;;;;;;1.57;100.00;98230.22;5030954;28;20132;-86
2021/11/27 07:54:00;;;;;;;13.23;6.40;;;;;;;1.57;100.00;98232.88;5049639;28;20556;-87
2021/11/27 07:56:26;;;;;;;14.32;6.18;;;;;;;1.64;100.00;98237.47;5038398;28;20060;-86
2021/11/27 07:58:52;;;;;;;16.95;6.97;;;;;;;1.60;100.00;98244.94;5050110;28;20052;-87
2021/11/27 08:01:17;;;;;;;18.42;8.77;;;;;;;1.68;100.00;98247.56;5037440;28;20891;-87
2021/11/27 08:03:44;;;;;;;24.23;12.07;;;;;;;1.72;100.00;98245.38;5018374;28;20044;-86
2021/11/27 08:06:09;;;;;;;22.95;13.10;;;;;;;1.72;100.00;98263.91;5073041;28;20047;-86
2021/11/27 08:08:35;;;;;;;23.33;12.68;;;;;;;1.70;100.00;98265.91;5037438;28;20032;-85
2021/11/27 08:11:01;;;;;;;19.00;10.32;;;;;;;1.63;100.00;98275.50;5053918;28;20048;-86
2021/11/27 08:13:26;;;;;;;23.13;12.63;;;;;;;1.73;100.00;98271.66;5041119;28;20397;-86
2021/11/27 08:15:52;;;;;;;21.45;11.68;;;;;;;1.63;100.00;98281.59;5065137;28;20044;-86
2021/11/27 08:18:18;;;;;;;26.25;14.73;;;;;;;1.72;100.00;98280.56;5041615;28;20055;-86
2021/11/27 08:20:49;;;;;;;18.02;8.95;;;;;;;1.60;100.00;98284.56;5067671;28;20036;-86
2021/11/27 08:23:14;;;;;;;18.80;9.48;;;;;;;1.54;100.00;98288.72;5037475;28;20032;-85
2021/11/27 08:25:40;;;;;;;22.35;12.48;;;;;;;1.64;100.00;98282.41;5054562;28;20044;-85
2021/11/27 08:28:05;;;;;;;21.27;11.70;;;;;;;1.69;100.00;98290.69;5052851;28;20036;-86
2021/11/27 08:30:31;;;;;;;21.77;10.73;;;;;;;1.56;100.00;98289.38;5052763;28;20052;-86
2021/11/27 08:32:56;;;;;;;19.10;11.13;;;;;;;1.58;100.00;98290.06;5069839;28;20253;-86
2021/11/27 08:35:22;;;;;;;19.90;10.27;;;;;;;1.62;100.00;98295.81;5032889;28;20051;-85
2021/11/27 08:37:47;;;;;;;19.02;10.65;;;;;;;1.61;100.00;98299.44;5041948;28;20331;-85
2021/11/27 08:40:12;;;;;;;18.48;9.98;;;;;;;1.53;100.00;98299.47;5036021;28;20036;-86
2021/11/27 08:42:39;;;;;;;17.25;10.65;;;;;;;1.61;100.00;98304.72;5051728;28;20048;-85
2021/11/27 08:45:05;;;;;;;22.63;12.77;;;;;;;1.65;100.00;98307.88;5069295;28;20041;-86
2021/11/27 08:47:31;;;;;;;19.42;11.25;;;;;;;1.66;100.00;98304.22;5041349;28;20131;-85
2021/11/27 08:49:59;;;;;;;19.52;10.55;;;;;;;1.62;100.00;98316.16;5069538;28;20123;-86
2021/11/27 08:52:24;;;;;;;21.10;12.00;;;;;;;1.64;100.00;98314.13;5070684;28;20048;-84
2021/11/27 08:54:50;;;;;;;22.58;11.65;;;;;;;1.68;100.00;98312.84;5033641;28;20052;-86
2021/11/27 08:57:15;;;;;;;18.23;9.27;;;;;;;1.58;100.00;98303.28;5070261;28;20061;-85
2021/11/27 08:59:41;;;;;;;20.45;11.68;;;;;;;1.67;100.00;98324.38;5046265;28;20094;-85
2021/11/27 09:02:07;;;;;;;20.73;11.55;;;;;;;1.67;100.00;98327.88;5040760;28;20045;-86
2021/11/27 09:04:33;;;;;;;19.58;11.02;;;;;;;1.73;100.00;98336.97;5059845;28;20484;-85
2021/11/27 09:07:00;;;;;;;21.40;13.20;;;;;;;1.75;100.00;98341.06;5065734;28;20040;-85
2021/11/27 09:09:25;;;;;;;23.45;12.30;;;;;;;1.73;100.00;98339.59;5049978;28;20075;-86
2021/11/27 09:11:51;;;;;;;22.25;11.90;;;;;;;1.71;100.00;98341.56;5066623;28;20451;-86
2021/11/27 09:14:18;;;;;;;23.77;13.63;;;;;;;1.76;100.00;98345.38;5065986;28;20545;-85
2021/11/27 09:16:44;;;;;;;21.30;12.95;;;;;;;1.70;100.00;98351.34;5053200;28;20063;-86
2021/11/27 09:19:10;;;;;;;20.35;10.88;;;;;;;1.72;100.00;98351.97;5045289;28;20045;-85
2021/11/27 09:21:35;;;;;;;22.42;13.77;;;;;;;1.85;100.00;98356.75;5050857;28;20472;-84
2021/11/27 09:24:02;;;;;;;20.60;11.52;;;;;;;1.85;100.00;98354.13;5064984;28;20055;-85
2021/11/27 09:26:28;;;;;;;22.67;13.68;;;;;;;1.90;100.00;98365.03;5037596;28;20421;-86
2021/11/27 09:28:53;;;;;;;23.40;13.50;;;;;;;1.83;100.00;98357.91;5047865;28;20040;-86
2021/11/27 09:31:19;;;;;;;22.65;13.98;;;;;;;1.87;100.00;98367.16;5048854;28;20132;-86
2021/11/27 09:33:45;;;;;;;21.83;12.95;;;;;;;1.88;100.00;98369.66;5042559;28;20049;-86
2021/11/27 09:36:14;;;;;;;26.02;15.05;;;;;;;1.87;100.00;98378.59;5045876;28;20044;-87
2021/11/27 09:38:40;;;;;;;;;;;;;;;1.88;100.00;98382.88;5048239;28;20397;-87
2021/11/27 09:41:16;;;;;;;24.38;12.95;;;;;;;1.81;100.00;98379.22;5049162;28;19978;-87
2021/11/27 09:43:45;;;;;;;24.88;13.15;;;;;;;1.80;100.00;98375.75;5050470;28;20053;-87
2021/11/27 09:46:12;;;;;;;29.17;15.90;;;;;;;1.86;100.00;98378.75;5060963;28;20121;-87
2021/11/27 09:48:40;;;;;;;57.20;31.70;;;;;;;1.92;100.00;98386.81;5063924;28;20044;-86
2021/11/27 09:51:09;;;;;;;33.47;20.57;;;;;;;2.04;100.00;98387.28;5062309;28;20480;-86
2021/11/27 09:53:39;;;;;;;39.78;20.27;;;;;;;1.99;100.00;98394.94;5059910;28;20271;-87
2021/11/27 09:56:06;;;;;;;47.88;26.30;;;;;;;2.04;100.00;98395.22;5029317;28;20119;-87
2021/11/27 09:58:32;;;;;;;64.95;32.40;;;;;;;2.08;100.00;98393.91;5050792;28;20170;-87
2021/11/27 10:01:00;;;;;;;47.35;26.08;;;;;;;2.13;100.00;98396.03;5067456;28;20044;-85
2021/11/27 10:03:26;;;;;;;30.83;16.30;;;;;;;2.10;100.00;98402.53;5051032;28;20105;-87
2021/11/27 10:05:53;;;;;;;32.38;17.48;;;;;;;2.10;100.00;98405.16;5034453;28;20406;-86
2021/11/27 10:08:18;;;;;;;29.80;15.93;;;;;;;2.07;100.00;98402.00;5034218;28;20127;-86
2021/11/27 10:10:45;;;;;;;25.40;12.70;;;;;;;2.07;100.00;98402.00;5068536;28;20127;-87
2021/11/27 10:13:11;;;;;;;27.33;14.88;;;;;;;2.03;100.00;98394.41;5024124;28;20500;-85
2021/11/27 10:15:36;;;;;;;26.02;12.77;;;;;;;2.03;100.00;98407.63;5047302;28;20044;-86
2021/11/27 10:18:23;;;;;;;18.83;10.30;;;;;;;1.98;100.00;98404.66;5025095;28;20045;-86
2021/11/27 10:21:22;;;;;;;18.75;11.07;;;;;;;1.98;100.00;98420.53;5047271;28;20072;-87
2021/11/27 10:23:50;;;;;;;19.90;10.70;;;;;;;1.95;100.00;98410.28;5032905;28;20040;-86
2021/11/27 10:26:31;;;;;;;20.30;12.97;;;;;;;2.05;100.00;98409.31;5058312;28;20510;-86
2021/11/27 10:29:19;;;;;;;16.40;8.50;;;;;;;1.98;100.00;98409.13;5045478;28;20287;-85
2021/11/27 10:31:47;;;;;;;20.80;11.60;;;;;;;1.98;100.00;98411.78;5035819;28;20119;-87
2021/11/27 10:34:22;;;;;;;20.00;10.85;;;;;;;2.00;100.00;98413.25;5044765;28;20043;-87
2021/11/27 10:36:49;;;;;;;18.92;12.23;;;;;;;2.12;100.00;98423.50;5045224;28;20043;-87
2021/11/27 10:39:15;;;;;;;19.40;10.68;;;;;;;2.08;100.00;98422.19;5044199;28;20097;-86
2021/11/27 10:42:13;;;;;;;18.63;10.40;;;;;;;2.13;100.00;98422.50;5046175;28;20044;-86
2021/11/27 10:44:39;;;;;;;17.52;11.65;;;;;;;2.05;100.00;98425.19;4986337;28;20044;-86
2021/11/27 10:47:15;;;;;;;21.73;13.05;;;;;;;2.09;100.00;98429.13;5044060;28;20396;-86
2021/11/27 10:49:44;;;;;;;20.88;11.65;;;;;;;2.03;100.00;98441.22;5050538;28;20492;-86
2021/11/27 10:52:21;;;;;;;21.92;13.18;;;;;;;2.14;100.00;98438.22;5064666;28;20105;-86
2021/11/27 10:54:53;;;;;;;22.95;14.02;;;;;;;2.26;100.00;98442.16;5045148;28;20040;-87
2021/11/27 10:57:30;;;;;;;22.33;12.73;;;;;;;2.21;100.00;98443.66;5044939;28;20041;-85
2021/11/27 10:59:57;;;;;;;21.20;11.88;;;;;;;2.16;100.00;98448.66;5051364;28;20492;-87
2021/11/27 11:02:43;;;;;;;26.17;15.20;;;;;;;2.24;100.00;98436.22;5060778;28;20055;-86
2021/11/27 11:05:14;;;;;;;26.02;14.57;;;;;;;2.16;100.00;98435.41;5031526;28;20106;-86
2021/11/27 11:07:41;;;;;;;29.70;16.45;;;;;;;2.24;100.00;98443.31;5062404;28;20044;-86
2021/11/27 11:10:25;;;;;;;33.08;19.73;;;;;;;2.31;100.00;98444.31;5050337;28;20052;-86
2021/11/27 11:12:56;;;;;;;30.70;17.05;;;;;;;2.34;100.00;98454.56;5065821;28;20129;-87
2021/11/27 11:15:23;;;;;;;30.00;17.35;;;;;;;2.35;100.00;98450.09;5051199;28;20075;-87
2021/11/27 11:17:54;;;;;;;34.78;19.27;;;;;;;2.43;100.00;98458.84;5033651;28;20033;-86
2021/11/27 11:20:21;;;;;;;31.35;16.23;;;;;;;2.32;100.00;98451.25;5033498;28;20078;-87
2021/11/27 11:22:59;;;;;;;29.80;16.00;;;;;;;2.33;100.00;98452.91;5046440;28;20049;-86